createdAt,value
2023-04-07T00:00:33.576Z,5.50
2023-04-07T00:03:02.380Z,5.50
2023-04-07T00:05:30.388Z,5.50
2023-04-07T00:07:58.110Z,5.50
2023-04-07T00:10:28.371Z,5.50
2023-04-07T00:12:56.197Z,5.50
2023-04-07T00:15:25.412Z,5.40
2023-04-07T00:17:53.381Z,5.40
2023-04-07T00:20:21.330Z,5.40
2023-04-07T00:22:49.202Z,5.40
2023-04-07T00:25:17.245Z,5.30
2023-04-07T00:27:47.966Z,5.30
2023-04-07T00:30:16.333Z,5.30
2023-04-07T00:32:45.782Z,5.20
2023-04-07T00:35:13.670Z,5.20
2023-04-07T00:37:41.559Z,5.20
2023-04-07T00:40:10.864Z,5.20
2023-04-07T00:42:38.702Z,5.20
2023-04-07T00:45:07.321Z,5.20
2023-04-07T00:47:35.756Z,5.20
2023-04-07T00:50:06.998Z,5.10
2023-04-07T00:52:35.010Z,5.10
2023-04-07T00:55:03.144Z,5.10
2023-04-07T00:57:31.117Z,5.00
2023-04-07T00:59:59.057Z,5.10
2023-04-07T01:02:33.582Z,5.00
2023-04-07T01:05:11.309Z,5.00
2023-04-07T01:07:53.647Z,5.00
2023-04-07T01:10:28.418Z,4.90
2023-04-07T01:13:03.789Z,4.90
2023-04-07T01:15:32.751Z,4.90
2023-04-07T01:18:08.459Z,4.90
2023-04-07T01:20:39.575Z,4.80
2023-04-07T01:23:09.434Z,4.80
2023-04-07T01:25:56.228Z,4.80
2023-04-07T01:28:42.627Z,4.70
2023-04-07T01:31:16.298Z,4.70
2023-04-07T01:33:46.479Z,4.70
2023-04-07T01:36:16.590Z,4.70
2023-04-07T01:38:46.372Z,4.70
2023-04-07T01:41:17.313Z,4.60
2023-04-07T01:43:46.996Z,4.60
2023-04-07T01:46:16.836Z,4.60
2023-04-07T01:48:45.331Z,4.50
2023-04-07T01:51:17.535Z,4.50
2023-04-07T01:53:46.577Z,4.50
2023-04-07T01:56:14.452Z,4.50
2023-04-07T01:58:42.511Z,4.50
2023-04-07T02:01:11.105Z,4.40
2023-04-07T02:03:46.691Z,4.40
2023-04-07T02:06:19.570Z,4.40
2023-04-07T02:08:51.434Z,4.40
2023-04-07T02:11:22.303Z,4.40
2023-04-07T02:13:52.506Z,4.40
2023-04-07T02:16:21.627Z,4.40
2023-04-07T02:18:51.898Z,4.30
2023-04-07T02:21:21.317Z,4.30
2023-04-07T02:23:49.314Z,4.30
2023-04-07T02:26:17.328Z,4.30
2023-04-07T02:28:45.189Z,4.30
2023-04-07T02:31:13.742Z,4.30
2023-04-07T02:33:41.644Z,4.30
2023-04-07T02:36:11.113Z,4.30
2023-04-07T02:38:39.327Z,4.20
2023-04-07T02:41:07.460Z,4.20
2023-04-07T02:43:35.355Z,4.20
2023-04-07T02:46:03.220Z,4.20
2023-04-07T02:48:31.182Z,4.20
2023-04-07T02:50:59.680Z,4.20
2023-04-07T02:53:28.786Z,4.20
2023-04-07T02:55:56.729Z,4.20
2023-04-07T02:58:24.568Z,4.20
2023-04-07T03:00:52.454Z,4.20
2023-04-07T03:03:20.476Z,4.20
2023-04-07T03:05:48.433Z,4.10
2023-04-07T03:08:16.316Z,4.10
2023-04-07T03:10:45.504Z,4.10
2023-04-07T03:13:16.348Z,4.10
2023-04-07T03:15:44.774Z,4.10
2023-04-07T03:18:12.659Z,4.10
2023-04-07T03:20:42.000Z,4.10
2023-04-07T03:23:09.880Z,4.00
2023-04-07T03:25:37.867Z,4.00
2023-04-07T03:28:07.435Z,4.00
2023-04-07T03:30:35.555Z,4.00
2023-04-07T03:33:03.446Z,4.00
2023-04-07T03:35:31.294Z,4.00
2023-04-07T03:37:59.053Z,3.90
2023-04-07T03:40:26.898Z,4.00
2023-04-07T03:42:54.748Z,3.90
2023-04-07T03:45:24.062Z,3.90
2023-04-07T03:47:52.697Z,3.90
2023-04-07T03:50:21.186Z,3.90
2023-04-07T03:52:49.042Z,3.90
2023-04-07T03:55:17.334Z,3.90
2023-04-07T03:57:47.477Z,3.80
2023-04-07T04:00:16.041Z,3.80
2023-04-07T04:02:45.279Z,3.80
2023-04-07T04:05:13.142Z,3.80
2023-04-07T04:07:40.890Z,3.80
2023-04-07T04:10:09.798Z,3.80
2023-04-07T04:12:37.863Z,3.80
2023-04-07T04:15:06.371Z,3.80
2023-04-07T04:17:34.401Z,3.70
2023-04-07T04:20:04.163Z,3.70
2023-04-07T04:22:31.836Z,3.70
2023-04-07T04:25:01.137Z,3.70
2023-04-07T04:27:29.294Z,3.70
2023-04-07T04:29:57.047Z,3.70
2023-04-07T04:32:24.817Z,3.60
2023-04-07T04:34:52.593Z,3.60
2023-04-07T04:37:21.724Z,3.60
2023-04-07T04:39:49.493Z,3.60
2023-04-07T04:42:17.629Z,3.60
2023-04-07T04:44:45.436Z,3.60
2023-04-07T04:47:13.299Z,3.50
2023-04-07T04:49:41.220Z,3.60
2023-04-07T04:52:09.320Z,3.50
2023-04-07T04:54:38.427Z,3.50
2023-04-07T04:57:06.143Z,3.50
2023-04-07T04:59:34.639Z,3.50
2023-04-07T05:02:02.658Z,3.50
2023-04-07T05:04:30.708Z,3.50
2023-04-07T05:06:58.545Z,3.50
2023-04-07T05:09:27.378Z,3.50
2023-04-07T05:11:57.837Z,3.50
2023-04-07T05:14:25.686Z,3.50
2023-04-07T05:16:54.293Z,3.50
2023-04-07T05:19:22.187Z,3.50
2023-04-07T05:21:50.350Z,3.50
2023-04-07T05:24:18.103Z,3.50
2023-04-07T05:26:46.199Z,3.60
2023-04-07T05:29:15.236Z,3.60
2023-04-07T05:31:43.199Z,3.60
2023-04-07T05:34:11.351Z,3.70
2023-04-07T05:36:39.116Z,3.70
2023-04-07T05:39:06.801Z,3.70
2023-04-07T05:41:34.568Z,3.70
2023-04-07T05:44:02.584Z,3.80
2023-04-07T05:46:31.764Z,3.80
2023-04-07T05:49:07.120Z,3.80
2023-04-07T05:51:48.786Z,3.90
2023-04-07T05:54:17.041Z,3.90
2023-04-07T05:56:44.921Z,4.00
2023-04-07T05:59:12.600Z,4.00
2023-04-07T06:01:41.737Z,4.00
2023-04-07T06:04:09.605Z,4.10
2023-04-07T06:06:38.146Z,4.20
2023-04-07T06:09:07.689Z,4.20
2023-04-07T06:11:35.988Z,4.30
2023-04-07T06:14:03.852Z,4.40
2023-04-07T06:16:31.678Z,4.40
2023-04-07T06:19:00.868Z,4.50
2023-04-07T06:21:28.639Z,4.60
2023-04-07T06:23:56.359Z,4.70
2023-04-07T06:26:24.098Z,4.80
2023-04-07T06:28:51.926Z,4.90
2023-04-07T06:31:19.812Z,4.90
2023-04-07T06:33:47.975Z,5.00
2023-04-07T06:36:17.429Z,5.10
2023-04-07T06:38:45.561Z,5.10
2023-04-07T06:41:16.899Z,5.20
2023-04-07T06:43:44.904Z,5.30
2023-04-07T06:46:12.944Z,5.40
2023-04-07T06:48:40.788Z,5.40
2023-04-07T06:51:08.578Z,5.50
2023-04-07T06:53:37.794Z,5.50
2023-04-07T06:56:06.766Z,5.60
2023-04-07T06:58:34.795Z,5.60
2023-04-07T07:01:03.005Z,5.70
2023-04-07T07:03:31.778Z,5.80
2023-04-07T07:06:00.139Z,5.80
2023-04-07T07:08:29.204Z,5.90
2023-04-07T07:10:58.701Z,6.00
2023-04-07T07:13:27.863Z,6.00
2023-04-07T07:15:56.097Z,6.10
2023-04-07T07:18:23.903Z,6.20
2023-04-07T07:20:51.710Z,6.20
2023-04-07T07:23:19.476Z,6.30
2023-04-07T07:25:47.576Z,6.40
2023-04-07T07:28:16.675Z,6.40
2023-04-07T07:30:44.544Z,6.50
2023-04-07T07:33:12.573Z,6.60
2023-04-07T07:35:41.309Z,6.60
2023-04-07T07:38:09.231Z,6.70
2023-04-07T07:40:36.948Z,6.80
2023-04-07T07:43:04.807Z,6.80
2023-04-07T07:45:33.964Z,6.90
2023-04-07T07:48:01.849Z,6.90
2023-04-07T07:50:29.716Z,7.00
2023-04-07T07:52:57.815Z,7.10
2023-04-07T07:55:25.756Z,7.10
2023-04-07T07:57:53.606Z,7.10
2023-04-07T08:00:21.521Z,7.20
2023-04-07T08:02:50.765Z,7.30
2023-04-07T08:05:18.752Z,7.30
2023-04-07T08:07:46.865Z,7.40
2023-04-07T08:10:14.626Z,7.40
2023-04-07T08:12:42.448Z,7.50
2023-04-07T08:15:10.799Z,7.60
2023-04-07T08:17:38.877Z,7.60
2023-04-07T08:20:10.414Z,7.70
2023-04-07T08:22:38.252Z,7.70
2023-04-07T08:25:06.475Z,7.80
2023-04-07T08:27:34.624Z,7.90
2023-04-07T08:30:04.676Z,8.00
2023-04-07T08:32:39.229Z,8.00
2023-04-07T08:35:08.916Z,8.10
2023-04-07T08:37:37.171Z,8.10
2023-04-07T08:40:05.773Z,8.20
2023-04-07T08:42:40.676Z,8.30
2023-04-07T08:45:09.848Z,8.30
2023-04-07T08:47:38.452Z,8.30
2023-04-07T08:50:09.861Z,8.30
2023-04-07T08:52:45.217Z,8.40
2023-04-07T08:55:13.337Z,8.40
2023-04-07T08:57:42.404Z,8.40
2023-04-07T09:00:11.915Z,8.50
2023-04-07T09:02:41.578Z,8.50
2023-04-07T09:05:11.522Z,8.50
2023-04-07T09:07:41.142Z,8.60
2023-04-07T09:10:10.003Z,8.70
2023-04-07T09:12:38.376Z,8.80
2023-04-07T09:15:08.339Z,8.90
2023-04-07T09:17:36.309Z,9.00
2023-04-07T09:20:05.267Z,9.10
2023-04-07T09:22:38.810Z,9.10
2023-04-07T09:25:17.623Z,9.20
2023-04-07T09:27:59.174Z,9.20
2023-04-07T09:30:27.912Z,9.30
2023-04-07T09:32:56.184Z,9.40
2023-04-07T09:35:24.706Z,9.50
2023-04-07T09:38:09.587Z,9.60
2023-04-07T09:40:38.510Z,9.70
2023-04-07T09:43:07.446Z,9.70
2023-04-07T09:45:37.421Z,9.80
2023-04-07T09:48:09.362Z,9.90
2023-04-07T09:50:40.058Z,10.00
2023-04-07T09:53:09.283Z,10.00
2023-04-07T09:55:38.753Z,10.10
2023-04-07T09:58:07.499Z,10.20
2023-04-07T10:00:36.939Z,10.20
2023-04-07T10:03:05.215Z,10.20
2023-04-07T10:05:33.620Z,10.30
2023-04-07T10:08:03.097Z,10.30
2023-04-07T10:10:32.777Z,10.40
2023-04-07T10:13:00.679Z,10.40
2023-04-07T10:15:28.572Z,10.40
2023-04-07T10:17:57.176Z,10.50
2023-04-07T10:20:25.487Z,10.60
2023-04-07T10:22:54.661Z,10.60
2023-04-07T10:25:25.199Z,10.70
2023-04-07T10:28:00.294Z,10.70
2023-04-07T10:30:31.112Z,10.80
2023-04-07T10:32:59.231Z,10.80
2023-04-07T10:35:28.367Z,10.80
2023-04-07T10:38:13.931Z,10.80
2023-04-07T10:40:43.362Z,10.80
2023-04-07T10:43:13.775Z,10.80
2023-04-07T10:45:56.408Z,10.90
2023-04-07T10:48:24.428Z,11.00
2023-04-07T10:51:25.160Z,11.00
2023-04-07T10:54:22.491Z,11.10
2023-04-07T10:57:11.669Z,11.20
2023-04-07T10:59:46.833Z,11.30
2023-04-07T11:02:34.897Z,11.30
2023-04-07T11:05:03.406Z,11.40
2023-04-07T11:08:05.521Z,11.50
2023-04-07T11:10:33.534Z,11.50
2023-04-07T11:13:03.450Z,11.60
2023-04-07T11:15:33.978Z,11.60
2023-04-07T11:18:11.976Z,11.60
2023-04-07T11:20:46.113Z,11.60
2023-04-07T11:23:15.274Z,11.50
2023-04-07T11:25:45.501Z,11.60
2023-04-07T11:28:14.629Z,11.60
2023-04-07T11:30:50.060Z,11.60
2023-04-07T11:33:19.818Z,11.70
2023-04-07T11:35:56.567Z,11.70
2023-04-07T11:38:25.741Z,11.70
2023-04-07T11:40:53.846Z,11.80
2023-04-07T11:43:23.414Z,11.80
2023-04-07T11:46:17.534Z,11.80
2023-04-07T11:48:47.194Z,11.90
2023-04-07T11:51:19.360Z,11.90
2023-04-07T11:53:48.447Z,12.00
2023-04-07T11:56:18.579Z,12.00
2023-04-07T11:58:50.422Z,12.00
2023-04-07T12:01:20.057Z,12.00
2023-04-07T12:03:59.619Z,12.00
2023-04-07T12:06:33.452Z,12.10
2023-04-07T12:09:01.655Z,12.10
2023-04-07T12:11:30.385Z,12.10
2023-04-07T12:13:58.516Z,12.20
2023-04-07T12:16:27.888Z,12.20
2023-04-07T12:18:55.735Z,12.20
2023-04-07T12:21:24.065Z,12.30
2023-04-07T12:23:52.269Z,12.30
2023-04-07T12:26:22.466Z,12.30
2023-04-07T12:28:50.874Z,12.30
2023-04-07T12:31:18.724Z,12.30
2023-04-07T12:33:48.139Z,12.40
2023-04-07T12:36:16.118Z,12.40
2023-04-07T12:38:43.974Z,12.30
2023-04-07T12:41:11.920Z,12.30
2023-04-07T12:43:39.625Z,12.30
2023-04-07T12:46:07.443Z,12.30
2023-04-07T12:48:35.441Z,12.30
2023-04-07T12:51:04.816Z,12.30
2023-04-07T12:53:32.734Z,12.30
2023-04-07T12:56:00.826Z,12.30
2023-04-07T12:58:28.550Z,12.30
2023-04-07T13:00:56.717Z,12.30
2023-04-07T13:03:25.066Z,12.30
2023-04-07T13:05:55.062Z,12.20
2023-04-07T13:08:24.281Z,12.30
2023-04-07T13:10:52.314Z,12.30
2023-04-07T13:13:20.296Z,12.40
2023-04-07T13:15:48.072Z,12.40
2023-04-07T13:18:15.850Z,12.40
2023-04-07T13:20:45.382Z,12.30
2023-04-07T13:23:19.427Z,12.40
2023-04-07T13:25:48.735Z,12.50
2023-04-07T13:28:18.339Z,12.50
2023-04-07T13:30:46.308Z,12.50
2023-04-07T13:33:14.135Z,12.40
2023-04-07T13:35:41.979Z,12.40
2023-04-07T13:38:10.074Z,12.40
2023-04-07T13:40:37.838Z,12.50
2023-04-07T13:43:07.780Z,12.50
2023-04-07T13:45:36.675Z,12.50
2023-04-07T13:48:04.625Z,12.50
2023-04-07T13:50:32.391Z,12.50
2023-04-07T13:53:00.274Z,12.50
2023-04-07T13:55:28.030Z,12.50
2023-04-07T13:57:55.776Z,12.50
2023-04-07T14:00:25.069Z,12.60
2023-04-07T14:02:53.409Z,12.60
2023-04-07T14:05:21.370Z,12.70
2023-04-07T14:07:49.740Z,12.60
2023-04-07T14:10:17.842Z,12.70
2023-04-07T14:12:45.991Z,12.60
2023-04-07T14:15:14.577Z,12.60
2023-04-07T14:17:44.744Z,12.50
2023-04-07T14:20:12.750Z,12.50
2023-04-07T14:22:40.729Z,12.50
2023-04-07T14:25:08.807Z,12.50
2023-04-07T14:27:37.309Z,12.50
2023-04-07T14:30:05.995Z,12.40
2023-04-07T14:32:34.568Z,12.40
2023-04-07T14:35:03.747Z,12.40
2023-04-07T14:37:31.859Z,12.40
2023-04-07T14:40:03.002Z,12.40
2023-04-07T14:42:31.691Z,12.40
2023-04-07T14:45:01.627Z,12.40
2023-04-07T14:47:29.637Z,12.40
2023-04-07T14:49:57.468Z,12.40
2023-04-07T14:52:27.525Z,12.40
2023-04-07T14:54:55.856Z,12.30
2023-04-07T14:57:24.358Z,12.30
2023-04-07T14:59:52.069Z,12.30
2023-04-07T15:02:20.020Z,12.30
2023-04-07T15:04:47.854Z,12.30
2023-04-07T15:07:16.681Z,12.30
2023-04-07T15:09:47.661Z,12.40
2023-04-07T15:12:15.560Z,12.30
2023-04-07T15:14:43.335Z,12.30
2023-04-07T15:17:11.021Z,12.20
2023-04-07T15:19:39.073Z,12.20
2023-04-07T15:22:07.436Z,12.20
2023-04-07T15:24:35.279Z,12.10
2023-04-07T15:27:04.546Z,12.00
2023-04-07T15:29:32.416Z,12.00
2023-04-07T15:32:00.871Z,11.80
2023-04-07T15:34:28.876Z,11.80
2023-04-07T15:36:56.670Z,11.70
2023-04-07T15:39:24.620Z,11.60
2023-04-07T15:41:52.322Z,11.50
2023-04-07T15:44:21.505Z,11.50
2023-04-07T15:46:49.793Z,11.50
2023-04-07T15:49:23.140Z,11.50
2023-04-07T15:51:52.754Z,11.40
2023-04-07T15:54:20.467Z,11.40
2023-04-07T15:56:48.477Z,11.30
2023-04-07T15:59:16.202Z,11.30
2023-04-07T16:01:45.394Z,11.20
2023-04-07T16:04:13.259Z,11.10
2023-04-07T16:06:41.189Z,11.00
2023-04-07T16:09:09.062Z,10.90
2023-04-07T16:11:37.073Z,10.80
2023-04-07T16:14:07.693Z,10.70
2023-04-07T16:16:37.099Z,10.60
2023-04-07T16:19:06.353Z,10.60
2023-04-07T16:21:34.192Z,10.60
2023-04-07T16:24:01.959Z,10.60
2023-04-07T16:26:29.820Z,10.50
2023-04-07T16:28:57.811Z,10.60
2023-04-07T16:31:25.654Z,10.50
2023-04-07T16:33:53.448Z,10.50
2023-04-07T16:36:22.585Z,10.40
2023-04-07T16:38:51.070Z,10.40
2023-04-07T16:41:19.306Z,10.40
2023-04-07T16:43:47.637Z,10.50
2023-04-07T16:46:15.697Z,10.50
2023-04-07T16:48:43.776Z,10.40
2023-04-07T16:51:11.529Z,10.40
2023-04-07T16:53:40.647Z,10.40
2023-04-07T16:56:15.664Z,10.30
2023-04-07T16:58:43.438Z,10.20
2023-04-07T17:01:11.362Z,10.20
2023-04-07T17:03:39.571Z,10.20
2023-04-07T17:06:07.694Z,10.10
2023-04-07T17:08:36.856Z,10.00
2023-04-07T17:11:08.809Z,9.90
2023-04-07T17:13:41.838Z,9.80
2023-04-07T17:16:13.850Z,9.80
2023-04-07T17:18:41.668Z,9.60
2023-04-07T17:21:09.392Z,9.60
2023-04-07T17:23:37.423Z,9.50
2023-04-07T17:26:05.496Z,9.40
2023-04-07T17:28:35.087Z,9.30
2023-04-07T17:31:03.574Z,9.30
2023-04-07T17:33:31.436Z,9.20
2023-04-07T17:35:59.249Z,9.10
2023-04-07T17:38:27.341Z,9.10
2023-04-07T17:40:58.512Z,9.00
2023-04-07T17:43:26.609Z,8.90
2023-04-07T17:45:55.889Z,8.80
2023-04-07T17:48:23.929Z,8.70
2023-04-07T17:50:52.014Z,8.60
2023-04-07T17:53:20.551Z,8.60
2023-04-07T17:55:48.630Z,8.50
2023-04-07T17:58:16.946Z,8.50
2023-04-07T18:00:44.773Z,8.50
2023-04-07T18:03:14.595Z,8.40
2023-04-07T18:05:44.939Z,8.40
2023-04-07T18:08:13.197Z,8.40
2023-04-07T18:10:41.301Z,8.30
2023-04-07T18:13:09.434Z,8.30
2023-04-07T18:15:37.409Z,8.30
2023-04-07T18:18:05.721Z,8.30
2023-04-07T18:20:34.956Z,8.20
2023-04-07T18:23:05.152Z,8.20
2023-04-07T18:25:33.403Z,8.10
2023-04-07T18:28:01.900Z,8.10
2023-04-07T18:30:29.668Z,8.10
2023-04-07T18:33:00.344Z,8.10
2023-04-07T18:35:28.779Z,8.00
2023-04-07T18:37:59.205Z,8.00
2023-04-07T18:40:29.820Z,8.00
2023-04-07T18:42:57.913Z,7.90
2023-04-07T18:45:27.130Z,7.90
2023-04-07T18:47:55.358Z,7.90
2023-04-07T18:50:23.393Z,7.90
2023-04-07T18:52:51.458Z,7.80
2023-04-07T18:55:21.410Z,7.80
2023-04-07T18:57:50.651Z,7.80
2023-04-07T19:00:18.900Z,7.80
2023-04-07T19:02:47.480Z,7.90
2023-04-07T19:05:15.413Z,7.90
2023-04-07T19:07:45.961Z,7.80
2023-04-07T19:10:13.856Z,7.80
2023-04-07T19:12:43.238Z,7.80
2023-04-07T19:15:12.277Z,7.80
2023-04-07T19:17:41.535Z,7.80
2023-04-07T19:20:10.672Z,7.70
2023-04-07T19:22:38.579Z,7.70
2023-04-07T19:25:07.608Z,7.70
2023-04-07T19:27:35.690Z,7.70
2023-04-07T19:30:05.746Z,7.70
2023-04-07T19:32:33.940Z,7.70
2023-04-07T19:35:01.890Z,7.70
2023-04-07T19:37:32.581Z,7.70
2023-04-07T19:40:03.205Z,7.70
2023-04-07T19:42:31.637Z,7.70
2023-04-07T19:45:02.605Z,7.70
2023-04-07T19:47:32.501Z,7.70
2023-04-07T19:50:00.749Z,7.70
2023-04-07T19:52:33.879Z,7.70
2023-04-07T19:55:05.955Z,7.70
2023-04-07T19:57:36.054Z,7.70
2023-04-07T20:00:05.404Z,7.70
2023-04-07T20:02:35.150Z,7.70
2023-04-07T20:05:03.494Z,7.70
2023-04-07T20:07:31.607Z,7.70
2023-04-07T20:10:00.198Z,7.60
2023-04-07T20:12:27.980Z,7.60
2023-04-07T20:14:55.920Z,7.60
2023-04-07T20:17:23.706Z,7.60
2023-04-07T20:19:54.585Z,7.60
2023-04-07T20:22:22.773Z,7.60
2023-04-07T20:24:50.663Z,7.60
2023-04-07T20:27:18.786Z,7.50
2023-04-07T20:29:46.982Z,7.50
2023-04-07T20:32:14.930Z,7.50
2023-04-07T20:34:45.914Z,7.50
2023-04-07T20:37:14.980Z,7.50
2023-04-07T20:39:43.106Z,7.40
2023-04-07T20:42:11.010Z,7.50
2023-04-07T20:44:38.891Z,7.50
2023-04-07T20:47:10.730Z,7.40
2023-04-07T20:49:39.566Z,7.40
2023-04-07T20:52:07.967Z,7.40
2023-04-07T20:54:37.355Z,7.40
2023-04-07T20:57:05.372Z,7.40
2023-04-07T20:59:34.257Z,7.40
2023-04-07T21:02:02.249Z,7.40
2023-04-07T21:04:30.136Z,7.40
2023-04-07T21:06:57.913Z,7.50
2023-04-07T21:09:25.893Z,7.40
2023-04-07T21:11:54.996Z,7.40
2023-04-07T21:14:23.012Z,7.40
2023-04-07T21:16:50.885Z,7.40
2023-04-07T21:19:18.653Z,7.40
2023-04-07T21:21:46.400Z,7.40
2023-04-07T21:24:14.572Z,7.30
2023-04-07T21:26:42.265Z,7.40
2023-04-07T21:29:11.344Z,7.30
2023-04-07T21:31:39.535Z,7.30
2023-04-07T21:34:07.457Z,7.30
2023-04-07T21:36:35.764Z,7.30
2023-04-07T21:39:03.602Z,7.30
2023-04-07T21:41:31.364Z,7.30
2023-04-07T21:43:59.110Z,7.30
2023-04-07T21:46:29.304Z,7.30
2023-04-07T21:48:57.028Z,7.30
2023-04-07T21:51:25.029Z,7.30
2023-04-07T21:53:53.148Z,7.30
2023-04-07T21:56:21.851Z,7.20
2023-04-07T21:58:49.773Z,7.30
2023-04-07T22:01:18.690Z,7.30
2023-04-07T22:03:48.243Z,7.30
2023-04-07T22:06:16.400Z,7.30
2023-04-07T22:08:48.925Z,7.30
2023-04-07T22:11:27.081Z,7.30
2023-04-07T22:13:54.968Z,7.30
2023-04-07T22:16:22.777Z,7.30
2023-04-07T22:18:51.971Z,7.30
2023-04-07T22:21:20.105Z,7.30
2023-04-07T22:23:48.668Z,7.30
2023-04-07T22:26:18.044Z,7.30
2023-04-07T22:28:46.461Z,7.30
2023-04-07T22:31:14.365Z,7.30
2023-04-07T22:33:42.635Z,7.30
2023-04-07T22:36:11.648Z,7.30
2023-04-07T22:38:39.406Z,7.30
2023-04-07T22:41:07.197Z,7.30
2023-04-07T22:43:34.942Z,7.30
2023-04-07T22:46:02.736Z,7.30
2023-04-07T22:48:30.720Z,7.30
2023-04-07T22:50:58.592Z,7.30
2023-04-07T22:53:27.884Z,7.30
2023-04-07T22:55:55.762Z,7.40
2023-04-07T22:58:23.821Z,7.30
2023-04-07T23:00:51.765Z,7.30
2023-04-07T23:03:19.585Z,7.30
2023-04-07T23:05:47.423Z,7.30
2023-04-07T23:08:15.486Z,7.40
2023-04-07T23:10:44.685Z,7.30
2023-04-07T23:13:15.086Z,7.30
2023-04-07T23:15:43.023Z,7.30
2023-04-07T23:18:11.094Z,7.40
2023-04-07T23:20:39.342Z,7.40
2023-04-07T23:23:07.494Z,7.40
2023-04-07T23:25:35.830Z,7.40
2023-04-07T23:28:05.013Z,7.40
2023-04-07T23:30:32.848Z,7.40
2023-04-07T23:33:00.696Z,7.40
2023-04-07T23:35:28.747Z,7.40
2023-04-07T23:37:56.816Z,7.40
2023-04-07T23:40:24.574Z,7.40
2023-04-07T23:42:52.497Z,7.40
2023-04-07T23:45:21.796Z,7.40
2023-04-07T23:47:49.599Z,7.40
2023-04-07T23:50:17.592Z,7.40
2023-04-07T23:52:45.380Z,7.40
2023-04-07T23:55:13.414Z,7.40
2023-04-07T23:57:41.302Z,7.40
